Terminal Aerodrome Forecast
Issued by NWS

Home | Current Version | Previous Version | Text Only | Print | Product List | Glossary On
Versions: 1 2 3 4 5 6 7 8 9 10 11 12 13 14 15 16 17 18 19 20 21 22 23 24 25 26 27 28 29 30 31 32 33
000
FTUS45 KBOU 180539
TAFAPA
TAF
KAPA 180539Z 1806/1906 18003KT P6SM BKN060 OVC100
     FM180900 20005KT P6SM SCT070 BKN120
     FM181500 VRB05KT P6SM SCT120 BKN200
     FM182200 10005KT P6SM BKN060 OVC100=

USA.gov is the U.S. government's official web portal to all federal, state and local government web resources and services.